Terminal Aerodrome Forecast
Issued by NWS Wilmington, OH

Current Version | Previous Version | Graphics & Text | Print | Product List | Glossary On
Versions: 1 2 3 4 5 6 7 8 9 10 11 12 13 14 15 16 17 18 19 20 21
215
FTUS41 KILN 050440 AAB
TAFCMH
TAF AMD
KCMH 050440Z 0505/0524 20010KT 5SM BR OVC005
     FM050700 28012G18KT P6SM OVC010
     FM051400 29006KT P6SM BKN012
     FM051800 VRB04KT P6SM SCT015 BKN250=

USA.gov is the U.S. government's official web portal to all federal, state and local government web resources and services.